Portada
METAR-TAF:

METAR-TAF

Aeroports :

N'Djamena, Txad

latitud: 12-08N, longitud: 015-02E, altitud: 295 m

Observació

L'informe es va fer fa 22 minuts, a les 17:00 UTC
Vent 11 kt del Sud, variant entre Sud i Oest/Sud-Oest
Temperatura 37°C
Humitat 37%
Pressió 1005 hPa
Visibilitat: 8000 m

METAR: FTTJ 181700Z 18011KT 180V240 8000 NSC 37/20 Q1005 NOSIG

Hora: 18:22 (17:22 UTC)

Pronòstic

L'informe es va fer fa 6 hores i 22 minuts, a les 11:00 UTC
Pronòstic vàlid del 18 a les 12 UTC al 19 a les 18 UTC
Vent 10 kt del Oest/Sud-Oest
Visibilitat: 7000 m
Probabilitat 30% :
Temporalment
l' 18 a les 12 UTC al 18 a les 18 UTC
Visibilitat: 4000 m
tempesta, pluja
Temporalment
l' 19 a les 10 UTC al 19 a les 16 UTC
Visibilitat: 3000 m
tempesta, pluja

TAF: FTTJ 181100Z 1812/1918 24010KT 7000 NSC PROB30 TEMPO 1812/1818 4000 TSRA TEMPO 1910/1916 3000 TSRA

Observacions i pronòstics meteorològics de més de 4000 aeroports (METAR i TAF).

Les estacions disponibles són els punts grocs i vermells al mapa.

Posi el ratolí al punt desitjat per veure el nom de l'estació.

Feu clic per veure les observacions i els pronòstics meteorològics.

Per canviar el mapa: feu clic els botons verds amb una creu de color negre per apropar; al botó verd amb un guió per allunyar la imatge; o en les fletxes verdes per a mapes adjacents.


METAR-TAF: